createdAt,value
2017-12-15T00:00:28.641Z,2.80
2017-12-15T00:01:31.096Z,2.80
2017-12-15T00:02:33.566Z,2.80
2017-12-15T00:03:36.078Z,2.80
2017-12-15T00:04:38.590Z,2.80
2017-12-15T00:05:41.857Z,2.80
2017-12-15T00:06:44.316Z,2.80
2017-12-15T00:07:46.772Z,2.80
2017-12-15T00:08:49.223Z,2.70
2017-12-15T00:09:51.702Z,2.80
2017-12-15T00:10:54.177Z,2.80
2017-12-15T00:11:56.729Z,2.70
2017-12-15T00:12:59.201Z,2.70
2017-12-15T00:14:02.550Z,2.70
2017-12-15T00:15:05.852Z,2.70
2017-12-15T00:16:09.125Z,2.70
2017-12-15T00:17:12.184Z,2.70
2017-12-15T00:18:15.411Z,2.70
2017-12-15T00:19:18.672Z,2.70
2017-12-15T00:20:22.694Z,2.60
2017-12-15T00:21:25.223Z,2.60
2017-12-15T00:22:27.813Z,2.60
2017-12-15T00:23:31.149Z,2.60
2017-12-15T00:24:33.658Z,2.60
2017-12-15T00:25:36.911Z,2.50
2017-12-15T00:26:39.378Z,2.50
2017-12-15T00:27:41.841Z,2.50
2017-12-15T00:28:45.206Z,2.40
2017-12-15T00:29:47.725Z,2.40
2017-12-15T00:30:50.189Z,2.40
2017-12-15T00:31:52.680Z,2.40
2017-12-15T00:32:55.172Z,2.40
2017-12-15T00:33:57.659Z,2.40
2017-12-15T00:35:00.202Z,2.40
2017-12-15T00:36:02.666Z,2.40
2017-12-15T00:37:05.878Z,2.30
2017-12-15T00:38:08.322Z,2.30
2017-12-15T00:39:11.581Z,2.20
2017-12-15T00:40:14.525Z,2.20
2017-12-15T00:41:17.011Z,2.20
2017-12-15T00:42:19.482Z,2.20
2017-12-15T00:43:21.990Z,2.20
2017-12-15T00:44:24.454Z,2.20
2017-12-15T00:45:26.902Z,2.10
2017-12-15T00:46:29.373Z,2.10
2017-12-15T00:47:31.834Z,2.10
2017-12-15T00:48:34.302Z,2.10
2017-12-15T00:49:37.535Z,2.10
2017-12-15T00:50:40.773Z,2.10
2017-12-15T00:51:43.265Z,2.10
2017-12-15T00:52:45.728Z,2.10
2017-12-15T00:53:48.985Z,2.10
2017-12-15T00:54:51.445Z,2.20
2017-12-15T00:55:53.897Z,2.20
2017-12-15T00:56:57.902Z,2.10
2017-12-15T00:58:00.369Z,2.10
2017-12-15T00:59:02.844Z,2.10
2017-12-15T01:00:06.798Z,2.10
2017-12-15T01:01:10.021Z,2.10
2017-12-15T01:02:12.592Z,2.10
2017-12-15T01:03:15.258Z,2.10
2017-12-15T01:04:17.772Z,2.10
2017-12-15T01:05:20.215Z,2.00
2017-12-15T01:06:23.245Z,2.00
2017-12-15T01:07:25.698Z,2.00
2017-12-15T01:08:28.978Z,2.00
2017-12-15T01:09:31.450Z,2.00
2017-12-15T01:10:33.917Z,2.00
2017-12-15T01:11:36.589Z,1.90
2017-12-15T01:12:39.802Z,1.80
2017-12-15T01:13:42.291Z,1.80
2017-12-15T01:14:45.522Z,1.80
2017-12-15T01:15:47.981Z,1.80
2017-12-15T01:16:50.445Z,1.80
2017-12-15T01:17:52.910Z,1.80
2017-12-15T01:18:56.174Z,1.70
2017-12-15T01:19:58.686Z,1.70
2017-12-15T01:21:01.900Z,1.70
2017-12-15T01:22:04.361Z,1.70
2017-12-15T01:23:06.850Z,1.70
2017-12-15T01:24:09.942Z,1.70
2017-12-15T01:25:12.414Z,1.70
2017-12-15T01:26:14.975Z,1.70
2017-12-15T01:27:17.434Z,1.70
2017-12-15T01:28:19.885Z,1.70
2017-12-15T01:29:22.358Z,1.70
2017-12-15T01:30:24.866Z,1.70
2017-12-15T01:31:27.313Z,1.80
2017-12-15T01:32:30.078Z,1.80
2017-12-15T01:33:32.542Z,1.80
2017-12-15T01:34:35.775Z,1.80
2017-12-15T01:35:39.034Z,1.80
2017-12-15T01:36:41.490Z,1.80
2017-12-15T01:37:43.933Z,1.90
2017-12-15T01:38:46.405Z,1.90
2017-12-15T01:39:48.886Z,1.90
2017-12-15T01:40:51.357Z,1.90
2017-12-15T01:41:54.626Z,1.90
2017-12-15T01:42:57.163Z,1.80
2017-12-15T01:43:59.713Z,1.90
2017-12-15T01:45:02.177Z,1.80
2017-12-15T01:46:04.664Z,1.80
2017-12-15T01:47:08.777Z,1.70
2017-12-15T01:48:11.339Z,1.70
2017-12-15T01:49:14.940Z,1.80
2017-12-15T01:50:18.230Z,1.70
2017-12-15T01:51:20.705Z,1.70
2017-12-15T01:52:24.076Z,1.70
2017-12-15T01:53:26.566Z,1.70
2017-12-15T01:54:29.825Z,1.60
2017-12-15T01:55:32.335Z,1.60
2017-12-15T01:56:35.566Z,1.60
2017-12-15T01:57:38.078Z,1.50
2017-12-15T01:58:40.540Z,1.50
2017-12-15T01:59:43.010Z,1.50
2017-12-15T02:00:46.941Z,1.50
2017-12-15T02:01:49.422Z,1.40
2017-12-15T02:02:51.894Z,1.40
2017-12-15T02:03:54.400Z,1.40
2017-12-15T02:04:56.829Z,1.30
2017-12-15T02:05:59.297Z,1.30
2017-12-15T02:07:01.766Z,1.30
2017-12-15T02:08:05.029Z,1.30
2017-12-15T02:09:07.538Z,1.30
2017-12-15T02:10:11.241Z,1.30
2017-12-15T02:11:13.726Z,1.20
2017-12-15T02:12:16.190Z,1.20
2017-12-15T02:13:19.589Z,1.20
2017-12-15T02:14:22.801Z,1.20
2017-12-15T02:15:25.562Z,1.20
2017-12-15T02:16:28.049Z,1.20
2017-12-15T02:17:30.506Z,1.20
2017-12-15T02:18:32.958Z,1.10
2017-12-15T02:19:35.427Z,1.10
2017-12-15T02:20:37.952Z,1.10
2017-12-15T02:21:40.477Z,1.10
2017-12-15T02:22:43.056Z,1.10
2017-12-15T02:23:45.489Z,1.10
2017-12-15T02:24:47.984Z,1.10
2017-12-15T02:25:51.217Z,1.10
2017-12-15T02:26:53.670Z,1.10
2017-12-15T02:27:56.159Z,1.10
2017-12-15T02:28:58.614Z,1.10
2017-12-15T02:30:01.089Z,1.10
2017-12-15T02:31:03.542Z,1.10
2017-12-15T02:32:06.798Z,1.10
2017-12-15T02:33:09.303Z,1.00
2017-12-15T02:34:12.565Z,1.00
2017-12-15T02:35:15.270Z,1.00
2017-12-15T02:36:18.499Z,1.00
2017-12-15T02:37:21.063Z,1.00
2017-12-15T02:38:23.531Z,1.00
2017-12-15T02:39:26.048Z,0.90
2017-12-15T02:40:29.278Z,0.90
2017-12-15T02:41:31.742Z,0.90
2017-12-15T02:42:34.216Z,0.90
2017-12-15T02:43:36.700Z,0.90
2017-12-15T02:44:39.964Z,0.90
2017-12-15T02:45:43.242Z,0.80
2017-12-15T02:46:45.735Z,0.80
2017-12-15T02:47:48.202Z,0.80
2017-12-15T02:48:50.671Z,0.80
2017-12-15T02:49:53.948Z,0.80
2017-12-15T02:50:56.434Z,0.70
2017-12-15T02:51:59.717Z,0.70
2017-12-15T02:53:02.180Z,0.70
2017-12-15T02:54:04.621Z,0.70
2017-12-15T02:55:07.085Z,0.70
2017-12-15T02:56:09.605Z,0.70
2017-12-15T02:57:12.092Z,0.70
2017-12-15T02:58:14.562Z,0.70
2017-12-15T02:59:17.024Z,0.70
2017-12-15T03:00:19.497Z,0.70
2017-12-15T03:01:22.510Z,0.70
2017-12-15T03:02:25.749Z,0.60
2017-12-15T03:03:28.209Z,0.60
2017-12-15T03:04:31.320Z,0.60
2017-12-15T03:05:34.686Z,0.60
2017-12-15T03:06:37.161Z,0.60
2017-12-15T03:07:39.654Z,0.60
2017-12-15T03:08:42.494Z,0.60
2017-12-15T03:09:44.960Z,0.60
2017-12-15T03:10:47.429Z,0.60
2017-12-15T03:11:49.919Z,0.60
2017-12-15T03:12:52.456Z,0.60
2017-12-15T03:13:55.699Z,0.70
2017-12-15T03:14:58.949Z,0.70
2017-12-15T03:16:01.438Z,0.70
2017-12-15T03:17:04.003Z,0.70
2017-12-15T03:18:07.230Z,0.70
2017-12-15T03:19:10.445Z,0.70
2017-12-15T03:20:14.428Z,0.70
2017-12-15T03:21:17.684Z,0.80
2017-12-15T03:22:21.142Z,0.80
2017-12-15T03:23:23.663Z,0.70
2017-12-15T03:24:26.919Z,0.80
2017-12-15T03:25:29.381Z,0.70
2017-12-15T03:26:31.893Z,0.80
2017-12-15T03:27:34.395Z,0.80
2017-12-15T03:28:36.905Z,0.80
2017-12-15T03:29:39.382Z,0.80
2017-12-15T03:30:41.838Z,0.80
2017-12-15T03:31:45.099Z,0.80
2017-12-15T03:32:47.602Z,0.70
2017-12-15T03:33:50.103Z,0.80
2017-12-15T03:34:52.584Z,0.80
2017-12-15T03:35:55.050Z,0.70
2017-12-15T03:36:57.532Z,0.70
2017-12-15T03:38:00.010Z,0.70
2017-12-15T03:39:02.466Z,0.70
2017-12-15T03:40:04.940Z,0.70
2017-12-15T03:41:07.400Z,0.70
2017-12-15T03:42:10.665Z,0.70
2017-12-15T03:43:13.946Z,0.70
2017-12-15T03:44:16.465Z,0.60
2017-12-15T03:45:18.961Z,0.70
2017-12-15T03:46:21.528Z,0.70
2017-12-15T03:47:24.234Z,0.70
2017-12-15T03:48:26.769Z,0.70
2017-12-15T03:49:29.534Z,0.70
2017-12-15T03:50:32.105Z,0.80
2017-12-15T03:51:34.625Z,0.80
2017-12-15T03:52:37.074Z,0.80
2017-12-15T03:53:39.930Z,0.80
2017-12-15T03:54:42.486Z,0.80
2017-12-15T03:55:44.947Z,0.90
2017-12-15T03:56:47.434Z,0.90
2017-12-15T03:57:50.897Z,0.90
2017-12-15T03:58:54.355Z,0.90
2017-12-15T03:59:57.597Z,0.90
2017-12-15T04:01:00.064Z,0.90
2017-12-15T04:02:02.531Z,0.90
2017-12-15T04:03:05.759Z,0.90
2017-12-15T04:04:08.238Z,0.90
2017-12-15T04:05:10.748Z,0.90
2017-12-15T04:06:13.574Z,0.90
2017-12-15T04:07:17.074Z,0.90
2017-12-15T04:08:22.119Z,0.90
2017-12-15T04:09:24.605Z,0.90
2017-12-15T04:10:27.210Z,0.90
2017-12-15T04:11:29.692Z,0.90
2017-12-15T04:12:32.232Z,0.90
2017-12-15T04:13:34.697Z,0.90
2017-12-15T04:14:37.241Z,0.90
2017-12-15T04:15:40.485Z,1.00
2017-12-15T04:16:43.701Z,1.00
2017-12-15T04:17:46.165Z,1.00
2017-12-15T04:18:48.633Z,1.00
2017-12-15T04:19:51.127Z,1.10
2017-12-15T04:20:53.589Z,1.10
2017-12-15T04:21:56.822Z,1.10
2017-12-15T04:22:59.285Z,1.10
2017-12-15T04:24:02.511Z,1.10
2017-12-15T04:25:05.017Z,1.10
2017-12-15T04:26:07.487Z,1.10
2017-12-15T04:27:10.732Z,1.10
2017-12-15T04:28:13.961Z,1.10
2017-12-15T04:29:17.195Z,1.10
2017-12-15T04:30:20.170Z,1.10
2017-12-15T04:31:22.617Z,1.10
2017-12-15T04:32:25.068Z,1.10
2017-12-15T04:33:28.353Z,1.10
2017-12-15T04:34:30.797Z,1.00
2017-12-15T04:35:33.264Z,1.10
2017-12-15T04:37:44.749Z,1.00
2017-12-15T04:38:47.231Z,1.00
2017-12-15T04:39:49.678Z,1.00
2017-12-15T04:40:52.889Z,1.00
2017-12-15T04:41:55.349Z,0.90
2017-12-15T04:42:57.891Z,0.90
2017-12-15T04:44:00.349Z,0.90
2017-12-15T04:45:03.562Z,0.90
2017-12-15T04:46:06.022Z,0.90
2017-12-15T04:47:09.263Z,0.90
2017-12-15T04:48:12.509Z,0.90
2017-12-15T04:49:14.973Z,0.90
2017-12-15T04:50:17.442Z,0.90
2017-12-15T04:51:20.718Z,0.90
2017-12-15T04:52:23.171Z,0.90
2017-12-15T04:53:25.629Z,0.80
2017-12-15T04:54:28.850Z,0.80
2017-12-15T04:55:31.330Z,0.80
2017-12-15T04:56:33.797Z,0.80
2017-12-15T04:57:36.261Z,0.80
2017-12-15T04:58:39.589Z,0.80
2017-12-15T04:59:42.180Z,0.80
2017-12-15T05:00:44.618Z,0.80
2017-12-15T05:01:47.070Z,0.80
2017-12-15T05:02:50.311Z,0.80
2017-12-15T05:03:53.574Z,0.90
2017-12-15T05:04:56.112Z,0.90
2017-12-15T05:05:58.588Z,0.80
2017-12-15T05:07:01.129Z,0.80
2017-12-15T05:08:03.601Z,0.80
2017-12-15T05:09:06.105Z,0.80
2017-12-15T05:10:08.560Z,0.80
2017-12-15T05:11:11.053Z,0.80
2017-12-15T05:12:13.522Z,0.80
2017-12-15T05:13:16.081Z,0.80
2017-12-15T05:14:19.321Z,0.80
2017-12-15T05:15:22.549Z,0.90
2017-12-15T05:16:25.784Z,0.90
2017-12-15T05:17:28.246Z,0.90
2017-12-15T05:18:31.498Z,0.90
2017-12-15T05:19:34.018Z,0.90
2017-12-15T05:20:37.240Z,1.00
2017-12-15T05:21:40.485Z,1.00
2017-12-15T05:22:43.731Z,1.00
2017-12-15T05:23:46.268Z,1.00
2017-12-15T05:24:49.519Z,1.00
2017-12-15T05:25:51.979Z,1.00
2017-12-15T05:26:54.450Z,1.00
2017-12-15T05:27:57.685Z,1.10
2017-12-15T05:29:00.938Z,1.10
2017-12-15T05:30:04.178Z,1.10
2017-12-15T05:31:07.437Z,1.10
2017-12-15T05:32:09.922Z,1.10
2017-12-15T05:33:13.912Z,1.10
2017-12-15T05:34:17.156Z,1.10
2017-12-15T05:35:20.441Z,1.10
2017-12-15T05:36:22.906Z,1.10
2017-12-15T05:37:26.129Z,1.10
2017-12-15T05:38:28.623Z,1.10
2017-12-15T05:39:31.159Z,1.10
2017-12-15T05:40:33.693Z,1.10
2017-12-15T05:41:36.213Z,1.20
2017-12-15T05:42:38.769Z,1.20
2017-12-15T05:43:42.032Z,1.20
2017-12-15T05:44:45.311Z,1.20
2017-12-15T05:45:47.778Z,1.20
2017-12-15T05:46:50.346Z,1.20
2017-12-15T05:47:52.813Z,1.20
2017-12-15T05:48:55.263Z,1.20
2017-12-15T05:49:57.779Z,1.30
2017-12-15T05:51:00.262Z,1.30
2017-12-15T05:52:02.765Z,1.30
2017-12-15T05:53:06.044Z,1.30
2017-12-15T05:54:08.511Z,1.20
2017-12-15T05:55:11.738Z,1.20
2017-12-15T05:56:14.202Z,1.20
2017-12-15T05:57:16.685Z,1.20
2017-12-15T05:58:19.170Z,1.20
2017-12-15T05:59:21.774Z,1.30
2017-12-15T06:00:24.223Z,1.30
2017-12-15T06:01:26.746Z,1.30
2017-12-15T06:02:29.247Z,1.30
2017-12-15T06:03:32.558Z,1.20
2017-12-15T06:04:35.200Z,1.20
2017-12-15T06:05:38.942Z,1.20
2017-12-15T06:06:41.405Z,1.30
2017-12-15T06:07:43.902Z,1.30
2017-12-15T06:08:46.414Z,1.30
2017-12-15T06:09:49.714Z,1.30
2017-12-15T06:10:52.903Z,1.30
2017-12-15T06:11:55.389Z,1.30
2017-12-15T06:12:57.877Z,1.40
2017-12-15T06:14:01.111Z,1.40
2017-12-15T06:15:03.650Z,1.40
2017-12-15T06:16:06.909Z,1.40
2017-12-15T06:17:10.145Z,1.30
2017-12-15T06:18:12.632Z,1.30
2017-12-15T06:19:15.093Z,1.30
2017-12-15T06:20:17.580Z,1.30
2017-12-15T06:21:21.557Z,1.30
2017-12-15T06:22:24.790Z,1.30
2017-12-15T06:23:27.334Z,1.30
2017-12-15T06:24:30.555Z,1.40
2017-12-15T06:25:33.014Z,1.30
2017-12-15T06:26:35.479Z,1.30
2017-12-15T06:27:37.936Z,1.40
2017-12-15T06:28:40.482Z,1.40
2017-12-15T06:29:43.729Z,1.40
2017-12-15T06:30:46.178Z,1.40
2017-12-15T06:31:48.782Z,1.40
2017-12-15T06:32:51.280Z,1.40
2017-12-15T06:33:53.733Z,1.40
2017-12-15T06:34:56.200Z,1.40
2017-12-15T06:35:58.726Z,1.40
2017-12-15T06:37:01.206Z,1.40
2017-12-15T06:38:03.691Z,1.40
2017-12-15T06:39:06.175Z,1.40
2017-12-15T06:40:08.629Z,1.40
2017-12-15T06:41:11.086Z,1.40
2017-12-15T06:42:14.305Z,1.40
2017-12-15T06:43:16.774Z,1.40
2017-12-15T06:44:19.242Z,1.40
2017-12-15T06:45:21.699Z,1.40
2017-12-15T06:46:24.161Z,1.30
2017-12-15T06:47:26.613Z,1.30
2017-12-15T06:48:29.077Z,1.30
2017-12-15T06:49:32.426Z,1.30
2017-12-15T06:50:35.657Z,1.30
2017-12-15T06:51:38.894Z,1.30
2017-12-15T06:52:41.457Z,1.30
2017-12-15T06:53:43.925Z,1.30
2017-12-15T06:54:46.478Z,1.30
2017-12-15T06:55:49.865Z,1.30
2017-12-15T06:56:52.315Z,1.30
2017-12-15T06:57:54.810Z,1.30
2017-12-15T06:58:57.325Z,1.30
2017-12-15T06:59:59.789Z,1.30
2017-12-15T07:01:02.254Z,1.30
2017-12-15T07:02:05.495Z,1.30
2017-12-15T07:03:08.719Z,1.30
2017-12-15T07:04:11.972Z,1.30
2017-12-15T07:05:14.618Z,1.30
2017-12-15T07:06:17.852Z,1.30
2017-12-15T07:07:21.105Z,1.30
2017-12-15T07:08:23.799Z,1.30
2017-12-15T07:09:26.272Z,1.30
2017-12-15T07:10:28.735Z,1.30
2017-12-15T07:11:31.968Z,1.30
2017-12-15T07:12:34.537Z,1.30
2017-12-15T07:13:37.781Z,1.30
2017-12-15T07:14:41.022Z,1.20
2017-12-15T07:15:44.302Z,1.20
2017-12-15T07:16:46.791Z,1.20
2017-12-15T07:17:50.031Z,1.20
2017-12-15T07:18:53.276Z,1.20
2017-12-15T07:19:55.744Z,1.10
2017-12-15T07:20:58.239Z,1.10
2017-12-15T07:22:01.451Z,1.10
2017-12-15T07:23:03.906Z,1.10
2017-12-15T07:24:06.587Z,1.10
2017-12-15T07:25:09.041Z,1.10
2017-12-15T07:26:12.275Z,1.10
2017-12-15T07:27:14.866Z,1.00
2017-12-15T07:28:17.336Z,1.10
2017-12-15T07:29:20.616Z,1.10
2017-12-15T07:30:23.852Z,1.10
2017-12-15T07:31:26.315Z,1.00
2017-12-15T07:32:28.762Z,1.00
2017-12-15T07:33:32.003Z,1.10
2017-12-15T07:34:35.261Z,1.10
2017-12-15T07:35:38.562Z,1.00
2017-12-15T07:36:41.025Z,1.00
2017-12-15T07:37:44.240Z,1.10
2017-12-15T07:38:46.818Z,1.00
2017-12-15T07:39:49.275Z,1.10
2017-12-15T07:40:51.769Z,1.10
2017-12-15T07:41:54.258Z,1.10
2017-12-15T07:42:56.746Z,1.20
2017-12-15T07:43:59.226Z,1.20
2017-12-15T07:45:02.451Z,1.10
2017-12-15T07:46:05.108Z,1.10
2017-12-15T07:47:07.558Z,1.10
2017-12-15T07:48:10.433Z,1.10
2017-12-15T07:49:12.977Z,1.20
2017-12-15T07:50:16.205Z,1.20
2017-12-15T07:51:18.689Z,1.20
2017-12-15T07:52:21.828Z,1.20
2017-12-15T07:53:24.270Z,1.20
2017-12-15T07:54:26.753Z,1.20
2017-12-15T07:55:29.197Z,1.20
2017-12-15T07:56:31.653Z,1.20
2017-12-15T07:57:34.117Z,1.20
2017-12-15T07:58:36.581Z,1.30
2017-12-15T07:59:39.217Z,1.30
2017-12-15T08:00:41.667Z,1.20
2017-12-15T08:01:44.905Z,1.30
2017-12-15T08:02:48.881Z,1.30
2017-12-15T08:03:52.107Z,1.30
2017-12-15T08:04:54.662Z,1.30
2017-12-15T08:05:57.918Z,1.40
2017-12-15T08:07:00.394Z,1.40
2017-12-15T08:08:02.914Z,1.40
2017-12-15T08:09:05.358Z,1.40
2017-12-15T08:10:07.901Z,1.40
2017-12-15T08:11:11.137Z,1.40
2017-12-15T08:12:14.341Z,1.50
2017-12-15T08:13:16.818Z,1.40
2017-12-15T08:14:19.289Z,1.40
2017-12-15T08:15:21.792Z,1.40
2017-12-15T08:16:24.242Z,1.40
2017-12-15T08:17:26.699Z,1.50
2017-12-15T08:18:29.143Z,1.40
2017-12-15T08:19:31.614Z,1.50
2017-12-15T08:20:34.093Z,1.50
2017-12-15T08:21:36.624Z,1.50
2017-12-15T08:22:39.125Z,1.50
2017-12-15T08:23:42.335Z,1.60
2017-12-15T08:24:44.813Z,1.60
2017-12-15T08:25:48.031Z,1.60
2017-12-15T08:26:50.508Z,1.60
2017-12-15T08:27:52.973Z,1.60
2017-12-15T08:28:55.452Z,1.70
2017-12-15T08:29:57.921Z,1.70
2017-12-15T08:31:01.248Z,1.70
2017-12-15T08:32:03.729Z,1.70
2017-12-15T08:33:06.291Z,1.70
2017-12-15T08:34:08.782Z,1.80
2017-12-15T08:35:11.256Z,1.80
2017-12-15T08:36:13.696Z,1.80
2017-12-15T08:37:17.929Z,1.80
2017-12-15T08:38:20.378Z,1.80
2017-12-15T08:39:22.882Z,1.80
2017-12-15T08:40:25.341Z,1.80
2017-12-15T08:41:28.589Z,1.80
2017-12-15T08:42:31.809Z,1.80
2017-12-15T08:43:34.259Z,1.80
2017-12-15T08:44:37.613Z,1.80
2017-12-15T08:45:40.146Z,1.80
2017-12-15T08:46:42.592Z,1.80
2017-12-15T08:47:45.094Z,1.80
2017-12-15T08:48:47.577Z,1.80
2017-12-15T08:49:50.164Z,1.80
2017-12-15T08:50:52.609Z,1.80
2017-12-15T08:51:55.811Z,1.80
2017-12-15T08:52:58.273Z,1.80
2017-12-15T08:54:00.734Z,1.80
2017-12-15T08:55:03.978Z,1.80
2017-12-15T08:56:07.201Z,1.80
2017-12-15T08:57:10.045Z,1.80
2017-12-15T08:58:13.310Z,1.90
2017-12-15T08:59:15.772Z,1.90
2017-12-15T09:00:19.002Z,1.90
2017-12-15T09:01:21.520Z,1.80
2017-12-15T09:02:23.976Z,1.90
2017-12-15T09:03:26.470Z,1.90
2017-12-15T09:04:28.931Z,1.90
2017-12-15T09:05:31.423Z,1.90
2017-12-15T09:06:33.925Z,1.90
2017-12-15T09:07:37.155Z,2.00
2017-12-15T09:08:40.438Z,2.00
2017-12-15T09:09:42.931Z,2.00
2017-12-15T09:10:45.401Z,2.00
2017-12-15T09:11:47.895Z,2.00
2017-12-15T09:12:51.114Z,2.00
2017-12-15T09:13:54.374Z,2.00
2017-12-15T09:14:56.859Z,2.00
2017-12-15T09:15:59.329Z,2.00
2017-12-15T09:17:01.809Z,2.10
2017-12-15T09:18:05.052Z,2.10
2017-12-15T09:19:07.516Z,2.10
2017-12-15T09:20:09.984Z,2.10
2017-12-15T09:21:12.489Z,2.10
2017-12-15T09:22:15.005Z,2.20
2017-12-15T09:23:17.508Z,2.20
2017-12-15T09:24:21.577Z,2.30
2017-12-15T09:25:24.076Z,2.30
2017-12-15T09:26:26.531Z,2.20
2017-12-15T09:27:28.998Z,2.30
2017-12-15T09:28:31.457Z,2.20
2017-12-15T09:29:34.745Z,2.30
2017-12-15T09:30:37.237Z,2.30
2017-12-15T09:31:39.716Z,2.30
2017-12-15T09:32:42.307Z,2.40
2017-12-15T09:33:44.777Z,2.40
2017-12-15T09:34:47.805Z,2.40
2017-12-15T09:35:50.268Z,2.40
2017-12-15T09:36:52.782Z,2.40
2017-12-15T09:37:55.278Z,2.40
2017-12-15T09:38:57.830Z,2.50
2017-12-15T09:40:00.343Z,2.50
2017-12-15T09:41:02.825Z,2.50
2017-12-15T09:42:05.342Z,2.60
2017-12-15T09:43:07.826Z,2.60
2017-12-15T09:44:10.285Z,2.60
2017-12-15T09:45:12.736Z,2.60
2017-12-15T09:46:15.241Z,2.70
2017-12-15T09:47:18.555Z,2.70
2017-12-15T09:48:21.819Z,2.70
2017-12-15T09:49:25.045Z,2.70
2017-12-15T09:50:28.393Z,2.70
2017-12-15T09:51:31.628Z,2.70
2017-12-15T09:52:34.095Z,2.70
2017-12-15T09:53:36.587Z,2.70
2017-12-15T09:54:39.870Z,2.70
2017-12-15T09:55:42.707Z,2.70
2017-12-15T09:56:45.167Z,2.70
2017-12-15T09:57:47.676Z,2.80
2017-12-15T09:58:50.232Z,2.80
2017-12-15T09:59:52.704Z,2.80
2017-12-15T10:00:55.178Z,2.80
2017-12-15T10:01:57.645Z,2.80
2017-12-15T10:03:00.106Z,2.80
2017-12-15T10:04:03.370Z,2.70
2017-12-15T10:05:06.607Z,2.80
2017-12-15T10:06:09.197Z,2.80
2017-12-15T10:07:11.696Z,2.80
2017-12-15T10:08:14.166Z,2.90
2017-12-15T10:09:16.634Z,2.90
2017-12-15T10:10:19.863Z,2.90
2017-12-15T10:11:23.094Z,2.90
2017-12-15T10:12:25.589Z,2.90
2017-12-15T10:13:28.051Z,2.90
2017-12-15T10:14:31.269Z,2.90
2017-12-15T10:15:33.736Z,3.00
2017-12-15T10:16:36.404Z,2.90
2017-12-15T10:17:38.904Z,2.90
2017-12-15T10:18:41.434Z,2.90
2017-12-15T10:19:46.013Z,2.90
2017-12-15T10:20:48.506Z,2.90
2017-12-15T10:21:51.763Z,2.90
2017-12-15T10:22:54.280Z,2.90
2017-12-15T10:23:58.631Z,3.00
2017-12-15T10:25:01.094Z,3.00
2017-12-15T10:26:03.558Z,3.00
2017-12-15T10:27:06.038Z,3.00
2017-12-15T10:28:08.537Z,3.00
2017-12-15T10:29:11.817Z,2.90
2017-12-15T10:30:14.298Z,2.90
2017-12-15T10:31:17.525Z,3.00
2017-12-15T10:32:20.003Z,3.00
2017-12-15T10:33:22.482Z,3.00
2017-12-15T10:34:24.954Z,3.00
2017-12-15T10:35:27.416Z,3.10
2017-12-15T10:36:31.407Z,3.10
2017-12-15T10:37:33.907Z,3.10
2017-12-15T10:38:36.392Z,3.00
2017-12-15T10:39:38.853Z,3.00
2017-12-15T10:40:41.318Z,3.00
2017-12-15T10:41:43.806Z,2.90
2017-12-15T10:42:46.281Z,3.00
2017-12-15T10:43:48.760Z,2.90
2017-12-15T10:44:51.245Z,2.90
2017-12-15T10:45:53.712Z,2.90
2017-12-15T10:46:56.207Z,2.90
2017-12-15T10:47:58.668Z,2.90
2017-12-15T10:49:01.221Z,2.90
2017-12-15T10:50:03.753Z,2.90
2017-12-15T10:51:06.220Z,2.80
2017-12-15T10:52:08.703Z,2.80
2017-12-15T10:53:11.170Z,2.80
2017-12-15T10:54:13.633Z,2.80
2017-12-15T10:55:16.865Z,2.80
2017-12-15T10:56:20.121Z,2.80
2017-12-15T10:57:23.467Z,2.80
2017-12-15T10:58:26.690Z,2.80
2017-12-15T10:59:29.960Z,2.80
2017-12-15T11:00:32.437Z,2.80
2017-12-15T11:01:34.926Z,2.80
2017-12-15T11:02:37.426Z,2.70
2017-12-15T11:03:40.635Z,2.80
2017-12-15T11:04:43.131Z,2.80
2017-12-15T11:05:45.682Z,2.80
2017-12-15T11:06:48.130Z,2.80
2017-12-15T11:07:51.370Z,2.80
2017-12-15T11:08:54.638Z,2.80
2017-12-15T11:09:57.110Z,2.80
2017-12-15T11:10:59.707Z,2.80
2017-12-15T11:12:02.173Z,2.80
2017-12-15T11:13:04.746Z,2.80
2017-12-15T11:14:07.215Z,2.80
2017-12-15T11:15:09.668Z,2.80
2017-12-15T11:16:12.963Z,2.90
2017-12-15T11:17:15.469Z,2.80
2017-12-15T11:18:17.949Z,2.90
2017-12-15T11:19:20.434Z,2.80
2017-12-15T11:20:22.898Z,2.80
2017-12-15T11:21:27.101Z,2.90
2017-12-15T11:22:29.578Z,2.90
2017-12-15T11:23:32.054Z,2.90
2017-12-15T11:24:34.527Z,2.90
2017-12-15T11:25:36.993Z,2.90
2017-12-15T11:26:39.446Z,2.90
2017-12-15T11:27:41.969Z,3.00
2017-12-15T11:28:44.585Z,2.90
2017-12-15T11:29:47.232Z,2.90
2017-12-15T11:30:49.693Z,2.90
2017-12-15T11:31:52.158Z,2.90
2017-12-15T11:32:54.724Z,2.80
2017-12-15T11:33:57.217Z,2.80
2017-12-15T11:34:59.732Z,2.80
2017-12-15T11:36:02.206Z,2.80
2017-12-15T11:37:04.793Z,2.80
2017-12-15T11:38:07.268Z,2.80
2017-12-15T11:39:09.717Z,2.80
2017-12-15T11:40:12.986Z,2.80
2017-12-15T11:41:15.497Z,2.80
2017-12-15T11:42:18.749Z,2.80
2017-12-15T11:43:21.214Z,2.80
2017-12-15T11:44:23.678Z,2.90
2017-12-15T11:45:26.907Z,2.80
2017-12-15T11:46:29.353Z,2.80
2017-12-15T11:47:31.866Z,2.90
2017-12-15T11:48:35.090Z,2.90
2017-12-15T11:49:37.583Z,2.90
2017-12-15T11:50:40.035Z,2.90
2017-12-15T11:51:42.544Z,2.90
2017-12-15T11:52:45.009Z,2.90
2017-12-15T11:53:48.235Z,2.90
2017-12-15T11:54:51.517Z,2.90
2017-12-15T11:55:54.002Z,2.90
2017-12-15T11:56:57.329Z,2.90
2017-12-15T11:57:59.812Z,2.80
2017-12-15T11:59:02.274Z,2.90
2017-12-15T12:00:04.737Z,2.90
2017-12-15T12:01:07.971Z,2.80
2017-12-15T12:02:11.233Z,2.80
2017-12-15T12:03:13.685Z,2.80
2017-12-15T12:04:16.155Z,2.90
2017-12-15T12:05:18.687Z,2.80
2017-12-15T12:06:21.237Z,2.80
2017-12-15T12:07:23.731Z,2.80
2017-12-15T12:08:26.196Z,2.80
2017-12-15T12:09:29.555Z,2.80
2017-12-15T12:10:32.051Z,2.80
2017-12-15T12:11:34.543Z,2.80
2017-12-15T12:12:37.812Z,2.80
2017-12-15T12:13:41.098Z,2.70
2017-12-15T12:14:43.985Z,2.70
2017-12-15T12:15:47.254Z,2.70
2017-12-15T12:16:49.728Z,2.70
2017-12-15T12:17:52.207Z,2.70
2017-12-15T12:18:54.654Z,2.60
2017-12-15T12:19:57.246Z,2.70
2017-12-15T12:20:59.731Z,2.70
2017-12-15T12:22:03.709Z,2.70
2017-12-15T12:23:06.941Z,2.70
2017-12-15T12:24:09.662Z,2.70
2017-12-15T12:25:12.165Z,2.70
2017-12-15T12:26:14.674Z,2.70
2017-12-15T12:27:17.150Z,2.60
2017-12-15T12:28:19.624Z,2.60
2017-12-15T12:29:22.138Z,2.60
2017-12-15T12:30:24.653Z,2.60
2017-12-15T12:31:27.101Z,2.60
2017-12-15T12:32:29.562Z,2.50
2017-12-15T12:33:32.046Z,2.50
2017-12-15T12:34:34.840Z,2.50
2017-12-15T12:35:38.077Z,2.40
2017-12-15T12:36:41.339Z,2.30
2017-12-15T12:37:44.560Z,2.30
2017-12-15T12:38:47.009Z,2.30
2017-12-15T12:39:49.466Z,2.30
2017-12-15T12:40:51.963Z,2.30
2017-12-15T12:41:54.476Z,2.20
2017-12-15T12:42:57.740Z,2.20
2017-12-15T12:44:00.195Z,2.20
2017-12-15T12:45:02.657Z,2.20
2017-12-15T12:46:05.894Z,2.10
2017-12-15T12:47:08.391Z,2.10
2017-12-15T12:48:11.518Z,2.00
2017-12-15T12:49:14.106Z,2.00
2017-12-15T12:50:22.148Z,2.00
2017-12-15T12:51:26.418Z,2.00
2017-12-15T12:52:28.953Z,1.90
2017-12-15T12:53:32.199Z,1.80
2017-12-15T12:54:34.674Z,1.80
2017-12-15T12:55:37.139Z,1.80
2017-12-15T12:56:40.605Z,1.70
2017-12-15T12:57:43.103Z,1.70
2017-12-15T12:58:46.369Z,1.70
2017-12-15T12:59:48.851Z,1.60
2017-12-15T13:00:51.302Z,1.60
2017-12-15T13:01:54.528Z,1.60
2017-12-15T13:02:57.812Z,1.60
2017-12-15T13:04:00.282Z,1.60
2017-12-15T13:05:02.728Z,1.60
2017-12-15T13:06:05.972Z,1.60
2017-12-15T13:07:09.202Z,1.60
2017-12-15T13:08:11.704Z,1.60
2017-12-15T13:09:14.171Z,1.60
2017-12-15T13:10:17.580Z,1.60
2017-12-15T13:11:20.038Z,1.50
2017-12-15T13:12:23.265Z,1.50
2017-12-15T13:13:26.517Z,1.50
2017-12-15T13:14:29.775Z,1.50
2017-12-15T13:15:33.019Z,1.60
2017-12-15T13:16:36.330Z,1.50
2017-12-15T13:17:38.789Z,1.50
2017-12-15T13:18:41.263Z,1.60
2017-12-15T13:19:44.111Z,1.50
2017-12-15T13:20:46.721Z,1.60
2017-12-15T13:21:49.190Z,1.60
2017-12-15T13:22:52.462Z,1.70
2017-12-15T13:23:54.970Z,1.70
2017-12-15T13:24:57.442Z,1.70
2017-12-15T13:25:59.937Z,1.70
2017-12-15T13:27:02.402Z,1.70
2017-12-15T13:28:05.712Z,1.70
2017-12-15T13:29:08.215Z,1.70
2017-12-15T13:30:10.706Z,1.70
2017-12-15T13:31:13.164Z,1.70
2017-12-15T13:32:15.676Z,1.70
2017-12-15T13:33:18.905Z,1.70
2017-12-15T13:34:22.172Z,1.70
2017-12-15T13:35:25.403Z,1.70
2017-12-15T13:36:28.633Z,1.80
2017-12-15T13:37:31.901Z,1.80
2017-12-15T13:39:44.132Z,1.80
2017-12-15T13:40:47.329Z,1.80
2017-12-15T13:41:49.814Z,1.80
2017-12-15T13:42:52.302Z,1.80
2017-12-15T13:43:54.774Z,1.90
2017-12-15T13:44:57.240Z,1.90
2017-12-15T13:46:00.473Z,1.90
2017-12-15T13:47:03.019Z,1.90
2017-12-15T13:48:05.535Z,1.90
2017-12-15T13:49:08.751Z,1.90
2017-12-15T13:50:11.213Z,1.90
2017-12-15T13:51:13.755Z,2.00
2017-12-15T13:52:16.427Z,2.00
2017-12-15T13:53:20.426Z,2.00
2017-12-15T13:54:22.943Z,2.10
2017-12-15T13:55:26.177Z,2.10
2017-12-15T13:56:29.463Z,2.10
2017-12-15T13:57:32.015Z,2.10